createdAt,value
2023-02-27T00:01:42.382Z,4.65
2023-02-27T00:04:09.686Z,4.66
2023-02-27T00:06:36.928Z,4.67
2023-02-27T00:09:04.444Z,4.64
2023-02-27T00:11:31.704Z,4.66
2023-02-27T00:13:58.980Z,4.64
2023-02-27T00:16:26.362Z,4.72
2023-02-27T00:18:53.904Z,4.57
2023-02-27T00:21:21.379Z,4.57
2023-02-27T00:23:51.686Z,4.38
2023-02-27T00:26:19.474Z,4.36
2023-02-27T00:28:47.162Z,4.31
2023-02-27T00:31:14.904Z,4.35
2023-02-27T00:33:42.457Z,4.29
2023-02-27T00:36:10.193Z,4.21
2023-02-27T00:38:37.676Z,4.22
2023-02-27T00:41:05.261Z,4.15
2023-02-27T00:43:33.084Z,4.20
2023-02-27T00:46:00.619Z,4.30
2023-02-27T00:48:30.172Z,4.17
2023-02-27T00:50:57.661Z,4.13
2023-02-27T00:53:25.136Z,4.15
2023-02-27T00:55:52.698Z,4.16
2023-02-27T00:58:20.389Z,4.17
2023-02-27T01:00:48.628Z,4.18
2023-02-27T01:03:16.339Z,4.22
2023-02-27T01:05:44.061Z,4.17
2023-02-27T01:08:11.537Z,4.18
2023-02-27T01:10:39.151Z,4.33
2023-02-27T01:13:07.468Z,4.16
2023-02-27T01:15:35.254Z,4.12
2023-02-27T01:18:03.329Z,4.12
2023-02-27T01:20:30.898Z,4.24
2023-02-27T01:22:58.509Z,4.19
2023-02-27T01:25:25.998Z,4.34
2023-02-27T01:27:53.474Z,4.35
2023-02-27T01:30:21.333Z,4.29
2023-02-27T01:32:49.146Z,4.35
2023-02-27T01:35:17.042Z,4.38
2023-02-27T01:37:44.757Z,4.40
2023-02-27T01:40:12.648Z,4.31
2023-02-27T01:42:39.860Z,4.27
2023-02-27T01:45:28.194Z,4.22
2023-02-27T01:48:04.080Z,4.21
2023-02-27T01:50:35.066Z,4.34
2023-02-27T01:53:03.603Z,4.28
2023-02-27T01:55:35.204Z,4.20
2023-02-27T01:58:02.827Z,4.31
2023-02-27T02:00:30.364Z,4.10
2023-02-27T02:03:20.427Z,4.06
2023-02-27T02:05:50.120Z,4.03
2023-02-27T02:08:20.848Z,4.01
2023-02-27T02:10:51.809Z,3.95
2023-02-27T02:13:21.152Z,3.93
2023-02-27T02:15:59.140Z,3.95
2023-02-27T02:18:38.853Z,3.89
2023-02-27T02:21:40.812Z,3.95
2023-02-27T02:24:26.373Z,3.95
2023-02-27T02:26:59.217Z,3.90
2023-02-27T02:29:45.266Z,4.05
2023-02-27T02:32:46.746Z,4.06
2023-02-27T02:35:33.047Z,4.18
2023-02-27T02:38:03.468Z,4.16
2023-02-27T02:40:49.925Z,4.07
2023-02-27T02:43:41.544Z,3.98
2023-02-27T02:46:19.120Z,3.90
2023-02-27T02:48:49.242Z,3.96
2023-02-27T02:51:29.200Z,3.91
2023-02-27T02:54:02.660Z,3.96
2023-02-27T02:56:56.738Z,3.90
2023-02-27T02:59:46.093Z,3.80
2023-02-27T03:02:21.545Z,3.79
2023-02-27T03:04:52.071Z,3.79
2023-02-27T03:07:29.836Z,3.77
2023-02-27T03:10:08.316Z,3.73
2023-02-27T03:12:39.502Z,3.74
2023-02-27T03:15:21.290Z,3.66
2023-02-27T03:18:20.876Z,3.70
2023-02-27T03:20:57.308Z,3.80
2023-02-27T03:23:46.086Z,3.90
2023-02-27T03:26:24.611Z,3.95
2023-02-27T03:29:01.198Z,4.10
2023-02-27T03:31:45.607Z,3.95
2023-02-27T03:34:21.279Z,3.88
2023-02-27T03:36:58.515Z,3.99
2023-02-27T03:39:52.421Z,3.93
2023-02-27T03:42:40.465Z,3.96
2023-02-27T03:45:25.739Z,3.95
2023-02-27T03:47:53.647Z,3.94
2023-02-27T03:50:21.960Z,4.03
2023-02-27T03:52:50.172Z,4.04
2023-02-27T03:55:23.089Z,4.05
2023-02-27T03:57:51.546Z,4.05
2023-02-27T04:00:21.050Z,4.02
2023-02-27T04:02:51.101Z,3.94
2023-02-27T04:05:22.259Z,3.93
2023-02-27T04:07:54.930Z,4.00
2023-02-27T04:10:32.422Z,3.97
2023-02-27T04:12:59.650Z,4.06
2023-02-27T04:15:39.263Z,4.12
2023-02-27T04:18:27.853Z,4.11
2023-02-27T04:20:59.045Z,4.06
2023-02-27T04:23:43.674Z,4.09
2023-02-27T04:26:11.258Z,4.04
2023-02-27T04:28:47.494Z,4.03
2023-02-27T04:31:14.738Z,4.01
2023-02-27T04:33:42.202Z,4.03
2023-02-27T04:36:11.989Z,4.10
2023-02-27T04:38:40.372Z,4.09
2023-02-27T04:41:10.078Z,4.08
2023-02-27T04:43:38.971Z,4.08
2023-02-27T04:46:08.402Z,4.08
2023-02-27T04:48:38.841Z,4.17
2023-02-27T04:51:11.377Z,4.09
2023-02-27T04:53:51.461Z,4.16
2023-02-27T04:56:30.866Z,4.19
2023-02-27T04:59:15.819Z,4.28
2023-02-27T05:01:55.140Z,4.29
2023-02-27T05:04:24.686Z,4.26
2023-02-27T05:06:54.058Z,4.20
2023-02-27T05:09:38.589Z,4.25
2023-02-27T05:12:11.363Z,4.19
2023-02-27T05:14:57.709Z,4.28
2023-02-27T05:17:28.076Z,4.33
2023-02-27T05:19:55.900Z,4.35
2023-02-27T05:22:36.382Z,4.32
2023-02-27T05:25:06.536Z,4.38
2023-02-27T05:27:43.611Z,4.41
2023-02-27T05:30:12.557Z,4.43
2023-02-27T05:32:43.032Z,4.44
2023-02-27T05:35:13.383Z,4.46
2023-02-27T05:37:50.241Z,4.54
2023-02-27T05:40:23.759Z,4.49
2023-02-27T05:43:03.264Z,4.47
2023-02-27T05:45:32.103Z,4.55
2023-02-27T05:48:02.832Z,4.53
2023-02-27T05:50:32.537Z,4.53
2023-02-27T05:53:03.000Z,4.53
2023-02-27T05:55:34.277Z,4.48
2023-02-27T05:58:26.212Z,4.48
2023-02-27T06:00:56.530Z,4.50
2023-02-27T06:03:24.312Z,4.57
2023-02-27T06:05:53.536Z,4.57
2023-02-27T06:08:21.889Z,4.49
2023-02-27T06:10:49.968Z,4.47
2023-02-27T06:13:17.578Z,4.43
2023-02-27T06:15:45.518Z,4.58
2023-02-27T06:18:13.059Z,4.53
2023-02-27T06:20:40.798Z,4.61
2023-02-27T06:23:08.061Z,4.60
2023-02-27T06:25:35.315Z,4.58
2023-02-27T06:28:02.813Z,4.58
2023-02-27T06:30:30.412Z,4.56
2023-02-27T06:32:57.739Z,4.53
2023-02-27T06:35:26.667Z,4.56
2023-02-27T06:37:53.886Z,4.61
2023-02-27T06:40:21.141Z,4.61
2023-02-27T06:42:48.439Z,4.60
2023-02-27T06:45:16.473Z,4.71
2023-02-27T06:47:44.042Z,4.71
2023-02-27T06:50:12.516Z,4.67
2023-02-27T06:52:40.113Z,4.68
2023-02-27T06:55:08.446Z,4.72
2023-02-27T06:57:36.229Z,4.71
2023-02-27T07:00:04.820Z,4.60
2023-02-27T07:02:32.310Z,4.61
2023-02-27T07:04:59.587Z,4.65
2023-02-27T07:07:35.978Z,4.63
2023-02-27T07:10:05.547Z,4.68
2023-02-27T07:12:32.740Z,4.65
2023-02-27T07:15:00.173Z,4.67
2023-02-27T07:17:27.504Z,4.64
2023-02-27T07:19:54.901Z,4.60
2023-02-27T07:22:22.053Z,4.57
2023-02-27T07:24:49.359Z,4.58
2023-02-27T07:27:16.503Z,4.47
2023-02-27T07:29:43.858Z,4.51
2023-02-27T07:32:11.539Z,4.64
2023-02-27T07:34:38.929Z,4.54
2023-02-27T07:37:06.170Z,4.56
2023-02-27T07:39:33.528Z,4.53
2023-02-27T07:42:00.758Z,4.53
2023-02-27T07:44:28.210Z,4.54
2023-02-27T07:46:55.474Z,4.46
2023-02-27T07:49:22.754Z,4.53
2023-02-27T07:51:50.029Z,4.47
2023-02-27T07:54:17.500Z,4.52
2023-02-27T07:56:45.188Z,4.68
2023-02-27T07:59:12.708Z,4.72
2023-02-27T08:01:40.477Z,4.74
2023-02-27T08:04:07.729Z,4.62
2023-02-27T08:06:34.980Z,4.63
2023-02-27T08:09:02.335Z,4.71
2023-02-27T08:11:29.874Z,4.72
2023-02-27T08:14:01.787Z,4.70
2023-02-27T08:16:31.228Z,4.72
2023-02-27T08:18:59.563Z,4.75
2023-02-27T08:21:27.511Z,4.77
2023-02-27T08:23:54.997Z,4.84
2023-02-27T08:26:22.638Z,4.86
2023-02-27T08:28:50.083Z,4.84
2023-02-27T08:31:17.467Z,4.93
2023-02-27T08:33:44.883Z,5.00
2023-02-27T08:36:12.179Z,5.06
2023-02-27T08:38:39.582Z,5.06
2023-02-27T08:41:06.800Z,5.11
2023-02-27T08:43:34.101Z,5.10
2023-02-27T08:46:01.476Z,5.17
2023-02-27T08:48:28.836Z,5.21
2023-02-27T08:50:57.859Z,5.17
2023-02-27T08:53:25.310Z,5.23
2023-02-27T08:55:53.300Z,5.26
2023-02-27T08:58:20.699Z,5.26
2023-02-27T09:00:48.036Z,5.34
2023-02-27T09:03:15.812Z,5.33
2023-02-27T09:05:43.514Z,5.32
2023-02-27T09:08:10.890Z,5.31
2023-02-27T09:10:38.389Z,5.32
2023-02-27T09:13:05.694Z,5.32
2023-02-27T09:15:36.014Z,5.45
2023-02-27T09:18:06.640Z,5.59
2023-02-27T09:20:38.099Z,5.55
2023-02-27T09:23:05.506Z,5.63
2023-02-27T09:25:32.923Z,5.71
2023-02-27T09:28:00.618Z,5.70
2023-02-27T09:30:27.843Z,5.83
2023-02-27T09:32:55.181Z,5.99
2023-02-27T09:35:22.414Z,6.02
2023-02-27T09:37:49.812Z,6.12
2023-02-27T09:40:22.924Z,6.14
2023-02-27T09:42:51.315Z,6.04
2023-02-27T09:45:23.941Z,5.96
2023-02-27T09:47:56.497Z,6.03
2023-02-27T09:50:26.794Z,6.07
2023-02-27T09:52:54.363Z,6.06
2023-02-27T09:55:22.511Z,6.02
2023-02-27T09:57:52.774Z,6.07
2023-02-27T10:00:30.471Z,6.30
2023-02-27T10:03:00.948Z,6.30
2023-02-27T10:05:28.488Z,6.36
2023-02-27T10:08:02.171Z,6.43
2023-02-27T10:10:37.189Z,6.34
2023-02-27T10:13:32.489Z,6.45
2023-02-27T10:16:00.586Z,6.46
2023-02-27T10:18:33.959Z,6.66
2023-02-27T10:21:03.545Z,6.83
2023-02-27T10:23:36.320Z,7.13
2023-02-27T10:26:04.876Z,7.16
2023-02-27T10:28:33.074Z,7.24
2023-02-27T10:31:02.131Z,7.23
2023-02-27T10:33:35.874Z,7.37
2023-02-27T10:36:15.809Z,7.55
2023-02-27T10:38:53.024Z,7.63
2023-02-27T10:41:21.390Z,7.66
2023-02-27T10:43:50.840Z,7.74
2023-02-27T10:46:31.316Z,7.72
2023-02-27T10:49:01.788Z,7.62
2023-02-27T10:51:31.389Z,7.73
2023-02-27T10:54:25.572Z,7.77
2023-02-27T10:56:58.750Z,7.76
2023-02-27T10:59:36.466Z,7.79
2023-02-27T11:02:21.060Z,7.86
2023-02-27T11:04:59.846Z,7.69
2023-02-27T11:07:38.931Z,7.71
2023-02-27T11:10:27.660Z,7.70
2023-02-27T11:13:03.171Z,7.96
2023-02-27T11:15:32.040Z,7.88
2023-02-27T11:18:35.077Z,8.14
2023-02-27T11:21:08.493Z,7.84
2023-02-27T11:23:36.060Z,7.95
2023-02-27T11:26:25.232Z,8.18
2023-02-27T11:29:14.879Z,8.17
2023-02-27T11:31:53.282Z,7.98
2023-02-27T11:34:32.020Z,8.03
2023-02-27T11:37:30.695Z,7.78
2023-02-27T11:40:16.202Z,7.77
2023-02-27T11:42:47.179Z,7.69
2023-02-27T11:46:04.304Z,7.67
2023-02-27T11:48:18.860Z,7.77
2023-02-27T11:51:05.242Z,7.93
2023-02-27T11:53:35.309Z,7.94
2023-02-27T11:56:05.784Z,8.02
2023-02-27T11:58:41.256Z,7.94
2023-02-27T12:01:25.267Z,8.10
2023-02-27T12:04:04.883Z,8.09
2023-02-27T12:06:46.071Z,8.24
2023-02-27T12:09:43.533Z,8.16
2023-02-27T12:12:25.248Z,8.23
2023-02-27T12:15:04.661Z,8.27
2023-02-27T12:17:40.886Z,8.11
2023-02-27T12:20:29.494Z,8.01
2023-02-27T12:22:57.746Z,7.96
2023-02-27T12:25:35.360Z,8.09
2023-02-27T12:28:08.556Z,8.25
2023-02-27T12:30:45.372Z,8.15
2023-02-27T12:33:28.652Z,8.41
2023-02-27T12:36:01.841Z,8.58
2023-02-27T12:38:29.849Z,8.58
2023-02-27T12:41:27.851Z,8.48
2023-02-27T12:44:01.717Z,8.51
2023-02-27T12:46:57.861Z,8.73
2023-02-27T12:49:34.062Z,8.74
2023-02-27T12:52:40.099Z,8.60
2023-02-27T12:55:16.053Z,8.37
2023-02-27T12:57:58.824Z,8.42
2023-02-27T13:00:33.142Z,8.39
2023-02-27T13:03:27.891Z,8.58
2023-02-27T13:06:08.457Z,8.59
2023-02-27T13:08:47.324Z,8.68
2023-02-27T13:11:33.084Z,8.70
2023-02-27T13:14:24.342Z,8.70
2023-02-27T13:17:12.137Z,8.60
2023-02-27T13:19:45.702Z,8.62
2023-02-27T13:22:21.216Z,8.62
2023-02-27T13:24:51.729Z,8.59
2023-02-27T13:27:44.280Z,8.70
2023-02-27T13:30:33.800Z,8.62
2023-02-27T13:33:36.828Z,8.47
2023-02-27T13:36:33.490Z,8.58
2023-02-27T13:39:01.103Z,8.60
2023-02-27T13:41:28.673Z,8.48
2023-02-27T13:44:20.154Z,8.39
2023-02-27T13:46:48.074Z,8.25
2023-02-27T13:49:28.282Z,8.26
2023-02-27T13:51:59.794Z,8.23
2023-02-27T13:54:31.052Z,8.33
2023-02-27T13:57:04.767Z,8.21
2023-02-27T13:59:36.568Z,8.24
2023-02-27T14:02:25.655Z,8.34
2023-02-27T14:04:55.634Z,8.15
2023-02-27T14:07:26.691Z,8.17
2023-02-27T14:10:04.682Z,8.13
2023-02-27T14:12:45.896Z,8.06
2023-02-27T14:15:23.183Z,8.11
2023-02-27T14:18:09.247Z,8.17
2023-02-27T14:20:41.607Z,8.21
2023-02-27T14:23:15.080Z,8.16
2023-02-27T14:25:57.933Z,8.03
2023-02-27T14:28:31.073Z,8.07
2023-02-27T14:31:22.581Z,8.05
2023-02-27T14:33:55.301Z,8.12
2023-02-27T14:36:25.784Z,7.85
2023-02-27T14:38:59.236Z,7.78
2023-02-27T14:41:51.544Z,7.91
2023-02-27T14:44:23.291Z,7.88
2023-02-27T14:46:53.491Z,7.82
2023-02-27T14:49:26.066Z,7.76
2023-02-27T14:51:54.225Z,7.77
2023-02-27T14:54:26.561Z,7.82
2023-02-27T14:56:55.098Z,7.78
2023-02-27T14:59:28.000Z,7.70
2023-02-27T15:01:57.572Z,7.68
2023-02-27T15:04:28.988Z,7.69
2023-02-27T15:06:58.217Z,7.74
2023-02-27T15:09:45.315Z,7.66
2023-02-27T15:12:18.647Z,7.59
2023-02-27T15:14:58.638Z,7.58
2023-02-27T15:17:39.554Z,7.64
2023-02-27T15:20:29.841Z,7.67
2023-02-27T15:22:59.126Z,7.49
2023-02-27T15:25:27.667Z,7.65
2023-02-27T15:28:00.583Z,7.66
2023-02-27T15:30:28.410Z,7.79
2023-02-27T15:32:56.471Z,7.71
2023-02-27T15:35:30.485Z,7.67
2023-02-27T15:38:00.242Z,7.45
2023-02-27T15:40:31.397Z,7.50
2023-02-27T15:43:00.411Z,7.38
2023-02-27T15:45:32.665Z,7.41
2023-02-27T15:48:00.608Z,7.37
2023-02-27T15:50:33.241Z,7.41
2023-02-27T15:53:17.549Z,7.42
2023-02-27T15:55:50.736Z,7.49
2023-02-27T15:58:38.502Z,7.41
2023-02-27T16:01:24.558Z,7.38
2023-02-27T16:03:58.701Z,7.41
2023-02-27T16:06:34.052Z,7.39
2023-02-27T16:09:20.305Z,7.39
2023-02-27T16:11:48.057Z,7.35
2023-02-27T16:14:52.903Z,7.36
2023-02-27T16:17:34.078Z,7.35
2023-02-27T16:20:29.379Z,7.34
2023-02-27T16:23:15.445Z,7.32
2023-02-27T16:25:59.196Z,7.24
2023-02-27T16:28:38.175Z,7.16
2023-02-27T16:31:13.725Z,7.19
2023-02-27T16:33:42.778Z,7.12
2023-02-27T16:36:19.925Z,7.09
2023-02-27T16:38:49.796Z,7.06
2023-02-27T16:41:24.185Z,7.15
2023-02-27T16:43:53.521Z,7.03
2023-02-27T16:46:27.569Z,7.02
2023-02-27T16:49:17.673Z,7.04
2023-02-27T16:51:47.226Z,7.07
2023-02-27T16:54:16.507Z,7.09
2023-02-27T16:56:46.598Z,7.00
2023-02-27T16:59:31.127Z,6.98
2023-02-27T17:02:00.616Z,6.84
2023-02-27T17:04:29.138Z,6.80
2023-02-27T17:06:57.997Z,6.76
2023-02-27T17:09:27.411Z,6.79
2023-02-27T17:11:56.177Z,6.70
2023-02-27T17:14:24.841Z,6.68
2023-02-27T17:16:52.673Z,6.71
2023-02-27T17:19:22.429Z,6.55
2023-02-27T17:21:51.802Z,6.49
2023-02-27T17:24:19.300Z,6.50
2023-02-27T17:26:46.875Z,6.51
2023-02-27T17:29:15.138Z,6.51
2023-02-27T17:31:44.729Z,6.41
2023-02-27T17:34:12.488Z,6.44
2023-02-27T17:36:40.215Z,6.40
2023-02-27T17:39:07.945Z,6.43
2023-02-27T17:41:35.666Z,6.39
2023-02-27T17:44:03.292Z,6.41
2023-02-27T17:46:31.807Z,6.35
2023-02-27T17:49:02.805Z,6.33
2023-02-27T17:51:32.590Z,6.28
2023-02-27T17:54:04.882Z,6.27
2023-02-27T17:56:35.585Z,6.19
2023-02-27T17:59:05.308Z,6.07
2023-02-27T18:01:32.803Z,5.96
2023-02-27T18:04:00.892Z,5.99
2023-02-27T18:06:28.966Z,6.00
2023-02-27T18:08:56.348Z,5.99
2023-02-27T18:11:23.771Z,5.87
2023-02-27T18:13:51.647Z,5.81
2023-02-27T18:16:19.345Z,5.75
2023-02-27T18:18:46.824Z,5.74
2023-02-27T18:21:20.142Z,5.76
2023-02-27T18:23:47.826Z,5.79
2023-02-27T18:26:28.478Z,5.81
2023-02-27T18:29:01.540Z,5.77
2023-02-27T18:31:32.546Z,5.73
2023-02-27T18:34:00.526Z,5.73
2023-02-27T18:36:29.257Z,5.66
2023-02-27T18:38:57.047Z,5.62
2023-02-27T18:41:24.346Z,5.61
2023-02-27T18:43:51.977Z,5.59
2023-02-27T18:46:20.353Z,5.61
2023-02-27T18:48:47.906Z,5.59
2023-02-27T18:51:15.933Z,5.52
2023-02-27T18:53:44.892Z,5.59
2023-02-27T18:56:12.662Z,5.65
2023-02-27T18:58:40.306Z,5.58
2023-02-27T19:01:07.859Z,5.53
2023-02-27T19:03:35.927Z,5.58
2023-02-27T19:06:03.678Z,5.49
2023-02-27T19:08:31.842Z,5.61
2023-02-27T19:10:59.658Z,5.57
2023-02-27T19:13:26.963Z,5.55
2023-02-27T19:15:54.435Z,5.55
2023-02-27T19:18:21.682Z,5.59
2023-02-27T19:20:48.989Z,5.58
2023-02-27T19:23:16.191Z,5.50
2023-02-27T19:25:43.583Z,5.57
2023-02-27T19:28:11.560Z,5.61
2023-02-27T19:30:39.296Z,5.58
2023-02-27T19:33:06.821Z,5.55
2023-02-27T19:35:34.220Z,5.48
2023-02-27T19:38:01.434Z,5.44
2023-02-27T19:40:28.766Z,5.52
2023-02-27T19:42:56.397Z,5.50
2023-02-27T19:45:23.730Z,5.51
2023-02-27T19:47:53.648Z,5.51
2023-02-27T19:50:21.151Z,5.48
2023-02-27T19:52:49.225Z,5.44
2023-02-27T19:55:16.790Z,5.46
2023-02-27T19:57:44.291Z,5.51
2023-02-27T20:00:13.316Z,5.52
2023-02-27T20:02:41.394Z,5.38
2023-02-27T20:05:09.291Z,5.34
2023-02-27T20:07:37.506Z,5.33
2023-02-27T20:10:06.417Z,5.28
2023-02-27T20:12:34.363Z,5.32
2023-02-27T20:15:08.900Z,5.39
2023-02-27T20:17:37.055Z,5.32
2023-02-27T20:20:05.786Z,5.34
2023-02-27T20:22:33.904Z,5.35
2023-02-27T20:25:01.955Z,5.31
2023-02-27T20:27:29.667Z,5.25
2023-02-27T20:29:57.756Z,5.22
2023-02-27T20:32:26.141Z,5.10
2023-02-27T20:34:55.846Z,5.18
2023-02-27T20:37:23.707Z,5.08
2023-02-27T20:39:51.684Z,5.12
2023-02-27T20:42:19.760Z,5.11
2023-02-27T20:44:49.860Z,5.07
2023-02-27T20:47:17.393Z,5.07
2023-02-27T20:49:45.380Z,5.06
2023-02-27T20:52:13.743Z,5.06
2023-02-27T20:54:41.645Z,5.02
2023-02-27T20:57:09.337Z,4.99
2023-02-27T20:59:36.870Z,4.99
2023-02-27T21:02:08.991Z,5.00
2023-02-27T21:04:43.634Z,4.97
2023-02-27T21:07:13.347Z,4.74
2023-02-27T21:09:41.580Z,4.82
2023-02-27T21:12:09.572Z,4.67
2023-02-27T21:14:37.346Z,4.61
2023-02-27T21:17:05.247Z,4.69
2023-02-27T21:19:32.785Z,4.57
2023-02-27T21:22:00.334Z,4.55
2023-02-27T21:24:31.183Z,4.57
2023-02-27T21:26:58.872Z,4.49
2023-02-27T21:29:26.650Z,4.51
2023-02-27T21:31:55.169Z,4.51
2023-02-27T21:34:24.578Z,4.58
2023-02-27T21:36:52.897Z,4.49
2023-02-27T21:39:22.952Z,4.44
2023-02-27T21:41:51.001Z,4.35
2023-02-27T21:44:19.825Z,4.40
2023-02-27T21:46:47.814Z,4.31
2023-02-27T21:49:20.911Z,4.35
2023-02-27T21:51:49.036Z,4.31
2023-02-27T21:54:17.197Z,4.36
2023-02-27T21:56:45.437Z,4.35
2023-02-27T21:59:12.776Z,4.31
2023-02-27T22:01:41.924Z,4.33
2023-02-27T22:04:09.266Z,4.28
2023-02-27T22:06:36.981Z,4.32
2023-02-27T22:09:05.333Z,4.40
2023-02-27T22:11:33.905Z,4.43
2023-02-27T22:14:01.207Z,4.44
2023-02-27T22:16:28.645Z,4.47
2023-02-27T22:18:55.846Z,4.45
2023-02-27T22:21:25.275Z,4.47
2023-02-27T22:23:53.019Z,4.40
2023-02-27T22:26:22.761Z,4.47
2023-02-27T22:28:50.716Z,4.43
2023-02-27T22:31:18.562Z,4.46
2023-02-27T22:33:47.116Z,4.45
2023-02-27T22:36:21.964Z,4.46
2023-02-27T22:38:49.690Z,4.51
2023-02-27T22:41:18.753Z,4.51
2023-02-27T22:43:46.515Z,4.52
2023-02-27T22:46:16.493Z,4.59
2023-02-27T22:48:44.033Z,4.54
2023-02-27T22:51:12.847Z,4.57
2023-02-27T22:53:40.843Z,4.52
2023-02-27T22:56:13.107Z,4.47
2023-02-27T22:58:41.165Z,4.48
2023-02-27T23:01:08.570Z,4.49
2023-02-27T23:03:36.201Z,4.45
2023-02-27T23:06:04.102Z,4.48
2023-02-27T23:08:31.455Z,4.52
2023-02-27T23:10:59.182Z,4.41
2023-02-27T23:13:26.580Z,4.36
2023-02-27T23:15:54.791Z,4.39
2023-02-27T23:18:22.259Z,4.39
2023-02-27T23:20:49.776Z,4.43
2023-02-27T23:23:17.250Z,4.42
2023-02-27T23:25:45.070Z,4.42
2023-02-27T23:28:12.583Z,4.43
2023-02-27T23:30:40.282Z,4.40
2023-02-27T23:33:08.186Z,4.43
2023-02-27T23:35:35.514Z,4.53
2023-02-27T23:38:03.265Z,4.47
2023-02-27T23:40:30.885Z,4.45
2023-02-27T23:43:17.236Z,4.49
2023-02-27T23:45:44.528Z,4.43
2023-02-27T23:48:12.050Z,4.48
2023-02-27T23:50:41.605Z,4.46
2023-02-27T23:53:10.466Z,4.42
2023-02-27T23:55:38.670Z,4.44
2023-02-27T23:58:08.357Z,4.43
